createdAt,value
2023-04-18T09:10:01.173Z,4.72
2023-04-18T09:12:34.729Z,3.92
2023-04-18T09:18:03.702Z,4.10
2023-04-18T09:20:48.842Z,4.72
2023-04-18T09:23:30.259Z,3.90
2023-04-18T09:40:32.462Z,3.85
2023-04-18T09:43:01.338Z,3.80
2023-04-18T09:45:37.008Z,3.78
2023-04-18T09:56:38.476Z,4.13
2023-04-18T10:07:35.772Z,4.43
2023-04-18T10:10:09.838Z,4.45
2023-04-18T10:12:38.236Z,4.75
2023-04-18T10:15:08.242Z,3.92
2023-04-18T10:18:02.720Z,4.13
2023-04-18T10:46:28.313Z,4.72
2023-04-18T10:49:16.332Z,4.35
2023-04-18T10:51:54.931Z,5.55
2023-04-18T10:54:39.596Z,5.57
2023-04-18T10:59:57.291Z,4.72
2023-04-18T11:02:33.546Z,5.20
2023-04-18T11:05:31.727Z,5.00
2023-04-18T11:07:58.761Z,4.90
2023-04-18T11:10:28.756Z,5.18
2023-04-18T11:18:44.027Z,4.90
2023-04-18T11:23:58.221Z,5.30
2023-04-18T11:29:18.749Z,4.65
2023-04-18T11:31:56.630Z,4.30
2023-04-18T11:34:39.422Z,5.30
2023-04-18T11:37:10.636Z,5.15
2023-04-18T11:39:46.078Z,5.30
2023-04-18T11:42:13.773Z,5.65
2023-04-18T11:53:09.241Z,5.18
2023-04-18T11:55:36.754Z,5.70
2023-04-18T11:58:07.146Z,5.82
2023-04-18T12:00:42.514Z,5.30
2023-04-18T12:03:17.865Z,5.35
2023-04-18T12:05:49.537Z,5.13
2023-04-18T12:08:20.993Z,4.65
2023-04-18T12:10:51.906Z,4.60
2023-04-18T12:13:19.946Z,4.85
2023-04-18T12:15:47.465Z,4.68
2023-04-18T12:18:16.046Z,5.43
2023-04-18T12:20:54.335Z,4.50
2023-04-18T12:23:40.443Z,4.65
2023-04-18T12:26:11.351Z,5.10
2023-04-18T12:28:38.479Z,4.97
2023-04-18T12:31:08.631Z,5.07
2023-04-18T12:33:36.907Z,4.57
2023-04-18T12:36:05.616Z,4.82
2023-04-18T12:38:33.129Z,5.00
2023-04-18T12:41:00.256Z,4.72
2023-04-18T12:43:27.374Z,4.60
2023-04-18T12:45:54.284Z,5.22
2023-04-18T12:48:21.521Z,5.15
2023-04-18T12:50:48.739Z,5.47
2023-04-18T12:53:15.957Z,5.45
2023-04-18T12:55:43.070Z,4.82
2023-04-18T12:58:10.353Z,4.72
2023-04-18T13:00:39.636Z,4.65
2023-04-18T13:03:13.215Z,5.20
2023-04-18T13:05:40.543Z,5.88
2023-04-18T13:08:16.024Z,5.72
2023-04-18T13:10:45.401Z,5.85
2023-04-18T13:13:13.061Z,5.65
2023-04-18T13:15:40.125Z,6.00
2023-04-18T13:18:10.541Z,5.60
2023-04-18T17:03:20.922Z,5.97
